Ethridge, Montana
Current Conditions -  °F | °C
As of 4:56 PM on Saturday 22 Nov 2014 (Local Time) from KCTB Reporting Station
Clear Clear  
Wind Chill: 24°   Ceiling: Unl
Heat Index: 35°   Visibility: 10mi
Dew Point: 20°   Wind: 20mph
Humidity: 54%   Direction: 270°W
Pressure: 29.41"   Gusts: 31mph
Location:  48.56°N, 112.12°W
Report Text: KCTB 222356Z AUTO 27017G27KT 10SM CLR 02/M07 A2941 RMK AO2 PK WND 28034/2259 SLP976 T00171067 10061 20017 53039
Loading
Personal Weather Stations






























Interactive Weather Map New forecast layout! Learn more

10-Day Weather Forecast

Advertisements
Track Severe Weather on mobile